• Join FlightAware (Why Join?)
  • Login
  • US Flag 
01:38AM EDT


 

Airport Tracker/Info


-or-


 

Live Flight TrackerFlight Track Log ✈ UCA5001 ✈ 11-May-2013 ✈ KALB - KEWR

Flight Track Log - Related Links

Times and Time Zones

All times are in EDT time to prevent confusion due to time zone crossing. See the UCA5001 flight status page for this flight to view local times or setup timezone preferences in your user account.

Time Position Orientation Groundspeed Altitude Reporting Facility
EDT Latitude Longitude Course Direction KTS MPH feet Rate Location/Type
11:50AM 42.7297 -73.8081 195° South 115 132 1,500  Level Boston Center
11:51AM 42.7006 -73.8189 195° South 145 167 2,400 1,080 Climbing Boston Center
11:51AM 42.6750 -73.8578 228° Southwest 175 201 3,400 1,140 Climbing Boston Center
11:52AM 42.6289 -73.8850 203° Southwest 182 209 4,600 1,200 Climbing Boston Center
11:54AM 42.5742 -73.9286 210° Southwest 185 213 6,100 1,380 Climbing Boston Center
11:55AM 42.5278 -73.9614 208° Southwest 184 212 7,700 1,560 Climbing Boston Center
11:56AM 42.4961 -73.9861 210° Southwest 164 189 9,100 1,380 Climbing Boston Center
11:56AM 42.4689 -74.0050 207° Southwest 159 183 10,000 840 Climbing Boston Center
11:57AM 42.4561 -74.0189 219° Southwest 157 181 10,000  Level Boston Center
11:57AM 42.4289 -74.0378 207° Southwest 188 216 10,000 -60 Level Boston Center
11:58AM 42.3803 -74.0758 210° Southwest 193 222 9,900 -60 Descending Boston Center
11:59AM 42.3339 -74.1083 207° Southwest 199 229 9,900  Level Boston Center
12:00PM 42.2750 -74.1544 210° Southwest 225 259 9,900  Level Boston Center
12:01PM 42.2200 -74.1978 210° Southwest 233 268 9,900  Level Boston Center
12:02PM 42.1631 -74.2356 206° Southwest 233 268 9,900  Level Boston Center
12:03PM 42.1064 -74.2758 208° Southwest 233 268 9,900  Level Boston Center
12:04PM 42.0536 -74.3161 210° Southwest 233 268 10,000  Climbing Boston Center
12:05PM 41.9986 -74.3536 207° Southwest 228 262 10,000 -480 Level Boston Center
12:06PM 41.9458 -74.3967 211° Southwest 228 262 9,100 -960 Descending Boston Center
12:07PM 41.8911 -74.4342 207° Southwest 228 262 8,100 -1,020 Descending Boston Center
12:08PM 41.8361 -74.4714 207° Southwest 228 262 7,100 -600 Descending Boston Center
12:09PM 41.7833 -74.5114 209° Southwest 228 262 7,000 -60 Descending Boston Center
12:10PM 41.7244 -74.5344 196° South 223 257 7,000  Level Boston Center
12:11PM 41.6639 -74.5436 186° South 223 257 7,000 -300 Level Boston Center
12:12PM 41.6011 -74.5556 188° South 223 257 6,400 -540 Descending Boston Center
12:13PM 41.5406 -74.5675 188° South 229 264 6,000 -240 Descending Boston Center
12:14PM 41.4778 -74.5792 188° South 229 264 6,000  Level Boston Center
12:16PM 41.3833 -74.6000 189° South 226 260 6,000  Level New York TRACON
12:17PM 41.3333 -74.6167 194° South 222 255 6,000 -240 Level New York TRACON
12:18PM 41.2667 -74.6333 191° South 224 258 5,600 -480 Descending New York TRACON
12:19PM 41.2000 -74.6333 180° South 213 245 5,000 -300 Descending New York TRACON
12:20PM 41.1333 -74.6333 180° South 213 245 5,000  Level New York TRACON
12:21PM 41.0833 -74.6333 180° South 213 245 5,000  Level New York TRACON
12:22PM 41.0333 -74.5833 143° Southeast 245 282 5,000  Level New York TRACON
12:23PM 41.0167 -74.5167 108° East 245 282 5,000  Level New York TRACON
12:24PM 41.0000 -74.4167 102° East 256 295 5,000  Level New York TRACON
12:25PM 41.0167 -74.3333 75° East 243 280 5,000 -300 Level New York TRACON
12:26PM 41.0167 -74.2500 90° East 229 264 4,500 -480 Descending New York TRACON
12:27PM 40.9833 -74.2000 131° Southeast 200 230 4,000 -300 Descending New York TRACON
12:28PM 40.9333 -74.1500 143° Southeast 194 223 4,000 -60 Level New York TRACON
12:29PM 40.9000 -74.1167 143° Southeast 192 221 3,900 -480 Descending New York TRACON
12:30PM 40.8500 -74.0833 153° Southeast 187 215 3,200 -720 Descending New York TRACON
12:31PM 40.8167 -74.0833 180° South 165 190 2,500 -660 Descending New York TRACON
12:32PM 40.7833 -74.1167 217° Southwest 147 169 1,900 -840 Descending New York TRACON
12:33PM 40.7333 -74.1333 194° South 155 178 800 -1,020 Descending New York TRACON
12:35PM 40.6833 -74.1667 185° South  Level FlightAware Approximate
12:42PM 40.6925 -74.1687 185° South  Level Estimated